Latest Weather Observations for Cape Naturaliste

IDW60801

Issued at 9:33 pm WST Monday 25 July 2016 (issued every 30 minutes, with the page automatically refreshed every 10 minutes)

About weather observations | Map of weather stations | Latest weather observations for WA | Other Formats
Station Details ID: 009519 Name: CAPE NATURALISTE Lat: -33.54 Lon: 115.02 Height: 109.0 m
Data from the previous 72 hours. | See also: Recent months at Cape Naturaliste
Date/Time
WST
Temp
°C
App
Temp
°C
Dew
Point
°C
Rel
Hum
%
Delta-T
°C
Wind Press
QNH
hPa
Press
MSL
hPa
Rain since
9am
mm
Dir  Spd
km/h
Gust
km/h
Spd
kts
Gust
kts
25/09:30pm 13.4 10.3 10.4 82 1.6 SW 17 22 9 12 1027.9 1027.9 0.2
25/09:00pm 12.7 9.4 9.7 82 1.5 SW 17 24 9 13 1027.7 1027.7 0.2
25/08:30pm 13.5 8.5 9.7 78 2.0 SW 26 41 14 22 1027.6 1027.6 0.2
25/08:00pm 14.0 9.3 9.4 74 2.3 SW 24 32 13 17 1027.6 1027.6 0.2
25/07:30pm 13.4 9.7 9.5 77 2.0 WSW 19 24 10 13 1027.0 1027.0 0.2
25/07:00pm 12.7 9.5 8.6 76 2.0 WSW 15 20 8 11 1026.6 1026.6 0.2
25/06:30pm 12.9 9.7 8.6 75 2.2 SW 15 20 8 11 1026.6 1026.6 0.2
25/06:00pm 12.8 9.1 8.1 73 2.3 SW 17 20 9 11 1026.7 1026.7 0.2
25/05:30pm 13.4 9.8 8.5 72 2.5 SW 17 22 9 12 1026.6 1026.6 0.2
25/05:00pm 13.6 10.0 8.4 71 2.6 SW 17 24 9 13 1026.6 1026.6 0.2
25/04:30pm 14.4 10.8 8.4 67 3.0 SW 17 20 9 11 1026.5 1026.5 0.2
25/04:00pm 15.3 12.8 9.7 69 2.9 WSW 13 17 7 9 1026.6 1026.6 0.2
25/03:30pm 16.0 13.9 9.7 66 3.3 WSW 11 15 6 8 1026.7 1026.7 0.2
25/03:00pm 17.0 15.2 10.8 67 3.3 W 11 17 6 9 1026.4 1026.4 0.2
25/02:30pm 16.3 13.9 10.2 67 3.2 WSW 13 19 7 10 1026.3 1026.3 0.2
25/02:00pm 16.4 14.5 10.5 68 3.1 WSW 11 19 6 10 1026.2 1026.2 0.2
25/01:30pm 16.0 14.0 10.3 69 3.0 WSW 11 15 6 8 1026.5 1026.5 0.2
25/01:00pm 15.9 14.6 11.1 73 2.6 WNW 9 13 5 7 1026.8 1026.8 0.2
25/12:30pm 14.8 13.6 10.4 75 2.3 SE 7 15 4 8 1027.4 1027.4 0.2
25/12:00pm 14.8 13.7 10.6 76 2.2 ESE 7 11 4 6 1027.9 1027.9 0.2
25/11:30am 16.1 15.1 12.3 78 2.1 E 9 15 5 8 1028.3 1028.3 0.2
25/11:00am 15.2 13.7 11.8 80 1.8 E 11 15 6 8 1028.6 1028.6 0.2
25/10:30am 14.4 13.6 11.7 84 1.5 E 7 11 4 6 1028.7 1028.7 0.2
25/10:00am 14.4 13.8 12.3 87 1.1 ESE 7 11 4 6 1028.4 1028.5 0.2
25/09:30am 12.5 11.0 10.4 87 1.1 SSW 9 11 5 6 1028.2 1028.2 0.0
25/09:00am 11.7 9.2 9.6 87 1.1 S 13 17 7 9 1028.0 1028.0 0.8
25/08:30am 11.4 8.8 9.3 87 1.1 SSE 13 19 7 10 1028.0 1028.0 0.8
25/08:00am 10.7 8.3 8.5 86 1.1 SSE 11 13 6 7 1027.8 1027.8 0.8
25/07:30am 10.6 7.3 8.2 85 1.2 SSE 15 20 8 11 1027.4 1027.4 0.8
25/07:00am 10.3 7.7 7.7 84 1.2 S 11 15 6 8 1027.0 1027.0 0.8
25/06:30am 10.5 7.5 7.9 84 1.3 SSW 13 24 7 13 1026.7 1026.7 0.8
25/06:00am 10.2 6.8 7.6 84 1.2 SSE 15 20 8 11 1026.5 1026.5 0.8
25/05:30am 10.2 7.6 7.6 84 1.3 SSE 11 15 6 8 1026.3 1026.3 0.8
25/05:00am 10.3 7.8 8.1 86 1.1 S 11 17 6 9 1026.1 1026.1 0.8
25/04:30am 9.9 6.9 7.7 86 1.1 SSE 13 15 7 8 1026.3 1026.3 0.8
25/04:00am 9.9 6.9 7.7 86 1.1 SSE 13 15 7 8 1026.4 1026.4 0.8
25/03:30am 10.0 7.0 7.8 86 1.1 SE 13 13 7 7 1026.7 1026.7 0.8
25/03:00am 10.3 7.4 8.2 87 1.0 SSE 13 17 7 9 1026.7 1026.7 0.8
25/02:30am 10.0 7.0 7.9 87 1.0 SSE 13 17 7 9 1026.7 1026.7 0.8
25/02:00am 10.0 7.0 7.8 86 1.1 SSE 13 17 7 9 1026.8 1026.8 0.8
25/01:30am 10.3 6.3 8.1 86 1.1 S 19 26 10 14 1026.6 1026.6 0.8
25/01:00am 10.6 6.5 8.5 87 1.0 S 20 30 11 16 1026.7 1026.7 0.8
25/12:30am 10.6 7.0 8.5 87 1.0 S 17 20 9 11 1026.8 1026.8 0.8
25/12:00am 10.5 7.3 8.6 88 0.9 SW 15 24 8 13 1026.7 1026.7 0.8
 
Date/Time
WST
Temp
°C
App
Temp
°C
Dew
Point
°C
Rel
Hum
%
Delta-T
°C
Wind Press
QNH
hPa
Press
MSL
hPa
Rain since
9am
mm
Dir  Spd
km/h
Gust
km/h
Spd
kts
Gust
kts
24/11:30pm 9.9 7.4 8.0 88 0.9 SSE 11 15 6 8 1026.8 1026.8 0.8
24/11:00pm 10.0 7.5 8.1 88 0.9 SE 11 15 6 8 1027.0 1027.0 0.8
24/10:30pm 10.3 7.4 8.2 87 1.0 SSE 13 19 7 10 1027.1 1027.1 0.8
24/10:00pm 10.5 6.9 8.4 87 1.0 S 17 22 9 12 1027.2 1027.2 0.8
24/09:30pm 10.5 7.3 8.4 87 1.0 SSE 15 22 8 12 1027.1 1027.1 0.8
24/09:00pm 10.5 6.9 8.4 87 1.0 S 17 22 9 12 1027.0 1027.0 0.8
24/08:30pm 11.3 7.9 9.0 86 1.2 SSW 17 30 9 16 1027.0 1027.0 0.8
24/08:00pm 10.4 7.1 8.0 85 1.2 SSE 15 20 8 11 1026.9 1026.9 0.4
24/07:30pm 10.6 7.0 8.2 85 1.2 SSW 17 24 9 13 1026.9 1026.9 0.4
24/07:00pm 10.9 6.4 8.5 85 1.2 SSW 22 32 12 17 1026.9 1026.9 0.4
24/06:30pm 10.4 8.2 7.8 84 1.3 S 9 13 5 7 1026.6 1026.6 0.4
24/06:00pm 11.7 7.7 8.9 83 1.4 SW 20 35 11 19 1026.3 1026.3 0.2
24/05:30pm 10.8 7.8 7.9 82 1.4 SSW 13 20 7 11 1026.2 1026.2 0.2
24/05:00pm 11.9 7.4 8.4 79 1.7 SW 22 37 12 20 1026.1 1026.1 0.2
24/04:30pm 12.5 9.8 8.8 78 1.9 SW 13 19 7 10 1026.1 1026.1 0.2
24/04:00pm 12.9 10.5 8.8 76 2.1 WSW 11 17 6 9 1026.2 1026.2 0.2
24/03:30pm 12.4 7.7 7.7 73 2.3 SSW 22 32 12 17 1026.3 1026.3 0.2
24/03:00pm 13.1 9.6 7.3 68 2.8 WSW 15 20 8 11 1026.2 1026.2 0.2
24/02:30pm 14.2 10.8 7.5 64 3.3 SW 15 20 8 11 1026.2 1026.2 0.2
24/02:00pm 14.5 10.6 7.3 62 3.5 WSW 17 22 9 12 1026.2 1026.2 0.2
24/01:30pm 13.1 10.3 8.6 74 2.3 WSW 13 20 7 11 1026.5 1026.5 0.2
24/01:00pm 12.1 11.7 8.2 77 1.9 CALM 0 7 0 4 1026.9 1026.9 0.2
24/12:30pm 11.9 10.0 7.6 75 2.1 SSE 7 15 4 8 1027.4 1027.4 0.2
24/12:00pm 12.2 10.3 7.7 74 2.2 NNE 7 9 4 5 1027.7 1027.7 0.2
24/11:30am 12.0 10.1 7.7 75 2.1 NNE 7 11 4 6 1028.0 1028.0 0.2
24/11:00am 11.6 9.7 7.7 77 1.9 NNE 7 9 4 5 1028.1 1028.1 0.0
24/10:30am 11.5 9.8 8.2 80 1.6 E 7 11 4 6 1028.3 1028.3 0.0
24/10:00am 11.1 8.9 8.0 81 1.5 E 9 11 5 6 1028.4 1028.5 0.0
24/09:30am 10.4 8.1 7.6 83 1.4 E 9 13 5 7 1028.2 1028.2 0.0
24/09:00am 9.9 6.8 7.2 83 1.3 ESE 13 15 7 8 1028.1 1028.1 0.0
24/08:30am 9.9 7.2 7.3 84 1.2 E 11 13 6 7 1027.9 1027.9 0.0
24/08:00am 9.1 6.6 6.4 83 1.2 ESE 9 11 5 6 1027.4 1027.4 0.0
24/07:30am 8.7 5.7 5.8 82 1.3 ESE 11 13 6 7 1027.1 1027.1 0.0
24/07:00am 8.2 4.2 5.1 81 1.4 ESE 15 17 8 9 1026.8 1026.8 0.0
24/06:30am 8.9 6.2 5.6 80 1.5 E 9 11 5 6 1026.5 1026.5 0.0
24/06:00am 9.1 6.1 6.2 82 1.3 SSE 11 15 6 8 1026.3 1026.3 0.0
24/05:30am 8.8 6.5 5.9 82 1.3 E 7 9 4 5 1026.2 1026.2 0.0
24/05:00am 8.2 5.0 5.3 82 1.3 E 11 13 6 7 1026.2 1026.2 0.0
24/04:30am 8.5 5.8 5.4 81 1.4 SSE 9 11 5 6 1026.4 1026.4 0.0
24/04:00am 9.1 5.3 6.0 81 1.4 SSW 15 17 8 9 1026.2 1026.2 0.0
24/03:30am 9.0 5.2 5.7 80 1.5 S 15 19 8 10 1026.4 1026.4 0.0
24/03:00am 8.0 5.1 4.4 78 1.6 SSE 9 13 5 7 1026.5 1026.5 0.0
24/02:30am 8.0 3.9 4.4 78 1.6 SSE 15 17 8 9 1026.5 1026.5 0.0
24/02:00am 7.5 3.3 3.6 76 1.7 SE 15 15 8 8 1026.4 1026.4 0.0
24/01:30am 8.2 3.6 3.9 74 1.9 S 17 20 9 11 1026.4 1026.4 0.0
24/01:00am 9.0 4.9 4.4 73 2.0 S 15 20 8 11 1026.4 1026.4 0.0
24/12:30am 9.4 3.3 5.0 74 2.0 S 26 35 14 19 1026.4 1026.4 0.0
24/12:27am 9.2 3.5 4.8 74 2.0 S 24 35 13 19 1026.4 1026.4 0.0
24/12:00am 7.7 3.4 3.0 72 2.0 SSE 15 17 8 9 1026.4 1026.4 0.0
 
Date/Time
WST
Temp
°C
App
Temp
°C
Dew
Point
°C
Rel
Hum
%
Delta-T
°C
Wind Press
QNH
hPa
Press
MSL
hPa
Rain since
9am
mm
Dir  Spd
km/h
Gust
km/h
Spd
kts
Gust
kts
23/11:30pm 8.5 4.3 3.6 71 2.1 SSE 15 19 8 10 1026.6 1026.6 0.0
23/11:00pm 8.7 4.5 3.7 71 2.2 SSE 15 17 8 9 1026.7 1026.7 0.0
23/10:30pm 8.9 4.7 3.7 70 2.3 SE 15 19 8 10 1026.6 1026.6 0.0
23/10:00pm 9.1 4.9 3.9 70 2.3 SSE 15 19 8 10 1026.5 1026.5 0.0
23/09:30pm 8.7 4.1 3.5 70 2.3 SSE 17 20 9 11 1026.2 1026.2 0.0
23/09:00pm 9.3 4.4 3.9 69 2.4 SSE 19 26 10 14 1026.0 1026.0 0.0
23/08:30pm 8.3 3.0 3.0 69 2.3 SSE 20 24 11 13 1025.9 1025.9 0.0
23/08:00pm 9.3 4.4 3.9 69 2.4 S 19 26 10 14 1025.9 1025.9 0.0
23/07:30pm 9.2 5.0 3.6 68 2.4 S 15 19 8 10 1025.8 1025.8 0.0
23/07:00pm 9.6 4.0 3.6 66 2.6 SSE 22 30 12 16 1025.3 1025.3 0.0
23/06:30pm 9.3 3.3 3.3 66 2.6 SSE 24 30 13 16 1024.8 1024.8 0.0
23/06:00pm 9.9 4.8 4.3 68 2.5 S 20 26 11 14 1024.5 1024.5 0.0
23/05:30pm 9.5 4.0 4.1 69 2.4 S 22 28 12 15 1024.1 1024.1 0.0
23/05:00pm 10.0 3.8 4.4 68 2.5 S 26 33 14 18 1023.7 1023.7 0.0
23/04:30pm 10.7 5.0 4.8 67 2.7 S 24 35 13 19 1023.5 1023.5 0.0
23/04:00pm 11.5 4.6 4.5 62 3.2 S 30 43 16 23 1023.2 1023.2 0.0
23/03:30pm 11.6 5.1 4.6 62 3.2 S 28 41 15 22 1023.1 1023.1 0.0
23/03:00pm 12.0 4.8 5.0 62 3.2 S 32 44 17 24 1022.8 1022.8 0.0
23/02:30pm 12.7 5.3 4.9 59 3.6 SSW 33 46 18 25 1022.7 1022.7 0.0
23/02:00pm 13.0 5.0 5.9 62 3.4 SSW 37 52 20 28 1022.4 1022.4 0.0
23/01:30pm 13.5 4.9 4.9 56 4.0 SSW 39 54 21 29 1022.4 1022.4 0.0
23/01:14pm 13.4 4.9 5.3 58 3.8 SSW 39 57 21 31 1022.2 1022.2 0.0
23/01:00pm 13.9 5.3 6.3 60 3.6 SSW 41 54 22 29 1022.3 1022.3 0.0
23/12:30pm 13.3 4.6 6.2 62 3.4 SSW 41 57 22 31 1022.5 1022.5 0.0
23/12:16pm 13.3 5.1 6.4 63 3.3 SSW 39 57 21 31 1022.5 1022.5 0.0
23/12:00pm 13.2 4.1 6.1 62 3.4 SSW 43 59 23 32 1022.5 1022.5 0.0
23/11:38am 13.6 5.2 7.2 65 3.1 SSW 41 59 22 32 1022.6 1022.6 0.0
23/11:30am 12.9 4.3 6.7 66 3.0 SSW 41 56 22 30 1022.6 1022.6 0.0
23/11:09am 12.7 4.4 7.6 71 2.5 SSW 41 63 22 34 1022.5 1022.5 0.0
23/11:00am 12.3 4.1 8.2 76 2.0 SSW 41 54 22 29 1022.5 1022.5 0.0
23/10:52am 12.2 5.7 8.9 80 1.7 SSW 33 52 18 28 1022.5 1022.5 0.0
23/10:30am 11.6 3.2 9.0 84 1.3 S 43 57 23 31 1022.4 1022.4 0.0
23/10:00am 11.5 3.0 8.7 83 1.4 SSW 43 61 23 33 1022.2 1022.2 0.0
23/09:48am 12.1 3.7 8.9 81 1.6 SW 43 59 23 32 1021.6 1021.6 0.0
23/09:30am 14.4 6.7 8.8 69 2.9 SW 39 50 21 27 1021.5 1021.5 0.0
23/09:01am 12.4 6.6 9.6 83 1.4 WSW 30 48 16 26 1021.4 1021.4 0.0
23/09:00am 12.6 6.9 9.8 83 1.4 WSW 30 39 16 21 1021.4 1021.4 2.4
23/08:30am 12.6 5.4 9.1 79 1.8 WSW 37 56 20 30 1021.5 1021.5 2.2
23/08:27am 12.4 5.6 9.1 80 1.7 WSW 35 56 19 30 1021.5 1021.5 2.2
23/08:00am 12.1 5.0 8.2 77 1.9 WSW 35 50 19 27 1021.5 1021.5 2.2
23/07:45am 12.1 5.6 8.0 76 2.0 WSW 32 50 17 27 1021.3 1021.3 2.2
23/07:30am 11.1 4.7 6.8 75 2.0 WSW 30 41 16 22 1021.4 1021.4 2.2
23/07:00am 10.5 2.5 7.6 82 1.4 WSW 39 52 21 28 1021.3 1021.3 2.2
23/06:30am 10.3 2.8 7.9 85 1.2 W 37 50 20 27 1021.4 1021.4 2.2
23/06:12am 10.6 3.5 8.0 84 1.3 WSW 35 54 19 29 1021.5 1021.5 1.8
23/06:00am 11.0 3.5 8.1 82 1.4 W 37 48 20 26 1021.4 1021.4 1.6
23/05:30am 12.1 5.4 7.2 72 2.4 W 32 50 17 27 1021.4 1021.4 1.2
23/05:00am 11.3 5.2 6.8 74 2.1 WSW 28 39 15 21 1021.6 1021.6 1.2
23/04:30am 10.9 4.9 7.0 77 1.9 WSW 28 35 15 19 1021.7 1021.7 1.2
23/04:09am 11.3 5.4 7.4 77 1.9 WSW 28 46 15 25 1021.8 1021.8 1.2
23/04:00am 10.7 3.9 6.8 77 1.8 W 32 43 17 23 1021.9 1021.9 1.2
23/03:30am 10.3 4.8 7.5 83 1.3 WSW 26 33 14 18 1022.2 1022.2 1.2
23/03:00am 10.4 3.9 8.0 85 1.2 W 32 46 17 25 1022.2 1022.2 1.2
23/02:59am 10.3 4.1 7.9 85 1.2 W 30 46 16 25 1022.2 1022.2 1.2
23/02:30am 9.2 4.7 7.0 86 1.0 WSW 20 28 11 15 1022.4 1022.4 1.2
23/02:00am 9.4 6.2 7.0 85 1.1 SW 13 17 7 9 1022.7 1022.7 1.0
23/01:30am 10.0 5.2 7.4 84 1.2 SW 22 30 12 16 1022.9 1022.9 1.0
23/01:00am 10.3 5.4 6.8 79 1.6 WSW 22 32 12 17 1023.1 1023.1 0.8
23/12:30am 10.2 6.5 6.4 77 1.8 WSW 15 20 8 11 1022.9 1022.9 0.2
23/12:00am 9.9 5.8 6.3 78 1.7 WSW 17 20 9 11 1023.0 1023.0 0.2
 
Date/Time
WST
Temp
°C
App
Temp
°C
Dew
Point
°C
Rel
Hum
%
Delta-T
°C
Wind Press
QNH
hPa
Press
MSL
hPa
Rain since
9am
mm
Dir  Spd
km/h
Gust
km/h
Spd
kts
Gust
kts
22/11:30pm 10.2 5.8 6.7 79 1.7 SW 19 26 10 14 1023.1 1023.1 0.2
22/11:00pm 9.8 6.9 6.7 81 1.5 SW 11 19 6 10 1023.3 1023.3 0.2
22/10:30pm 8.7 5.5 5.1 78 1.6 S 11 15 6 8 1023.4 1023.4 0.2
22/10:00pm 9.2 5.9 4.8 74 2.0 SSW 11 17 6 9 1023.7 1023.7 0.2

Other Formats:

Comma delimited format used in spreadsheet applications
http://www.bom.gov.au/fwo/IDW60801/IDW60801.94600.axf

JavaScript Object Notation format (JSON) in row-major order
http://www.bom.gov.au/fwo/IDW60801/IDW60801.94600.json